createdAt,value
2022-12-12T00:01:41.935Z,69.01
2022-12-12T00:04:44.714Z,69.56
2022-12-12T00:07:49.218Z,69.50
2022-12-12T00:10:51.801Z,69.70
2022-12-12T00:13:55.365Z,69.75
2022-12-12T00:16:58.035Z,69.90
2022-12-12T00:20:00.831Z,69.89
2022-12-12T00:23:04.777Z,69.81
2022-12-12T00:26:12.459Z,69.64
2022-12-12T00:29:15.150Z,69.72
2022-12-12T00:32:17.815Z,69.83
2022-12-12T00:35:20.602Z,70.04
2022-12-12T00:38:25.265Z,69.84
2022-12-12T00:41:28.455Z,69.75
2022-12-12T00:44:31.209Z,70.08
2022-12-12T00:47:33.995Z,70.19
2022-12-12T00:50:36.849Z,69.76
2022-12-12T00:53:41.291Z,69.80
2022-12-12T00:56:44.131Z,70.18
2022-12-12T00:59:46.976Z,70.31
2022-12-12T01:02:51.774Z,70.30
2022-12-12T01:05:54.488Z,70.39
2022-12-12T01:08:59.106Z,70.38
2022-12-12T01:12:02.018Z,70.58
2022-12-12T01:15:06.625Z,70.41
2022-12-12T01:18:09.633Z,70.00
2022-12-12T01:21:16.811Z,69.54
2022-12-12T01:24:20.929Z,69.60
2022-12-12T01:27:24.197Z,69.34
2022-12-12T01:30:27.913Z,69.13
2022-12-12T01:33:31.121Z,69.18
2022-12-12T01:36:34.055Z,68.67
2022-12-12T01:39:38.932Z,68.58
2022-12-12T01:42:41.853Z,68.51
2022-12-12T01:46:37.468Z,68.70
2022-12-12T01:49:41.276Z,68.37
2022-12-12T01:52:48.774Z,69.25
2022-12-12T01:55:53.340Z,69.57
2022-12-12T01:58:57.031Z,70.11
2022-12-12T02:01:59.812Z,70.62
2022-12-12T02:05:06.075Z,70.86
2022-12-12T02:08:09.670Z,71.19
2022-12-12T02:11:13.856Z,71.59
2022-12-12T02:14:19.419Z,71.51
2022-12-12T02:17:45.310Z,72.07
2022-12-12T02:21:03.190Z,72.09
2022-12-12T02:24:38.138Z,71.99
2022-12-12T02:27:53.699Z,71.94
2022-12-12T02:31:13.925Z,73.23
2022-12-12T02:34:20.899Z,73.65
2022-12-12T02:37:32.513Z,74.22
2022-12-12T02:40:40.521Z,74.34
2022-12-12T02:43:45.471Z,74.82
2022-12-12T02:46:53.720Z,75.27
2022-12-12T02:49:58.973Z,75.34
2022-12-12T02:53:02.218Z,76.13
2022-12-12T02:56:07.436Z,76.00
2022-12-12T02:59:11.043Z,75.32
2022-12-12T03:02:33.482Z,74.82
2022-12-12T03:06:01.407Z,74.98
2022-12-12T03:09:10.590Z,76.11
2022-12-12T03:12:17.404Z,76.76
2022-12-12T03:15:24.386Z,77.46
2022-12-12T03:18:32.366Z,77.30
2022-12-12T03:21:40.539Z,78.16
2022-12-12T03:24:49.606Z,78.13
2022-12-12T03:27:55.572Z,78.63
2022-12-12T03:31:00.324Z,78.95
2022-12-12T03:34:08.257Z,79.06
2022-12-12T03:37:14.927Z,80.14
2022-12-12T03:40:21.748Z,79.40
2022-12-12T03:43:26.837Z,80.22
2022-12-12T03:46:32.651Z,79.75
2022-12-12T03:49:41.539Z,79.61
2022-12-12T03:52:47.528Z,79.87
2022-12-12T03:55:53.116Z,79.97
2022-12-12T03:58:59.173Z,79.45
2022-12-12T04:02:04.891Z,79.09
2022-12-12T04:05:16.086Z,79.46
2022-12-12T04:08:19.404Z,79.52
2022-12-12T04:11:40.411Z,79.53
2022-12-12T04:15:06.558Z,79.49
2022-12-12T04:18:15.937Z,79.05
2022-12-12T04:21:43.690Z,79.23
2022-12-12T04:24:49.670Z,79.19
2022-12-12T04:27:56.980Z,79.69
2022-12-12T04:31:03.524Z,79.15
2022-12-12T04:34:11.226Z,78.81
2022-12-12T04:37:18.332Z,79.26
2022-12-12T04:40:23.143Z,79.09
2022-12-12T04:43:31.608Z,78.85
2022-12-12T04:46:35.001Z,78.76
2022-12-12T04:49:39.658Z,78.84
2022-12-12T04:52:44.641Z,78.25
2022-12-12T04:55:50.914Z,77.79
2022-12-12T04:58:55.645Z,77.02
2022-12-12T05:02:06.043Z,76.24
2022-12-12T05:05:13.388Z,75.57
2022-12-12T05:08:22.328Z,75.21
2022-12-12T05:11:25.721Z,74.51
2022-12-12T05:14:28.779Z,74.49
2022-12-12T05:17:36.585Z,74.19
2022-12-12T05:20:39.707Z,73.62
2022-12-12T05:23:44.002Z,73.63
2022-12-12T05:26:46.666Z,73.09
2022-12-12T05:29:49.649Z,73.14
2022-12-12T05:32:53.626Z,72.96
2022-12-12T05:35:56.494Z,72.51
2022-12-12T05:39:01.342Z,72.43
2022-12-12T05:42:04.248Z,71.79
2022-12-12T05:45:08.245Z,72.02
2022-12-12T05:48:11.377Z,71.88
2022-12-12T05:51:14.330Z,71.68
2022-12-12T05:54:18.345Z,71.98
2022-12-12T05:57:21.683Z,70.78
2022-12-12T06:00:24.463Z,71.10
2022-12-12T06:03:27.584Z,71.75
2022-12-12T06:06:30.262Z,71.96
2022-12-12T06:09:34.468Z,72.35
2022-12-12T06:12:37.059Z,72.26
2022-12-12T06:15:41.144Z,72.40
2022-12-12T06:18:43.733Z,72.01
2022-12-12T06:21:46.569Z,72.21
2022-12-12T06:24:50.629Z,72.29
2022-12-12T06:27:53.237Z,72.20
2022-12-12T06:30:55.915Z,71.85
2022-12-12T06:33:58.843Z,71.81
2022-12-12T06:37:01.624Z,71.79
2022-12-12T06:40:06.651Z,71.60
2022-12-12T06:43:10.131Z,71.53
2022-12-12T06:46:16.665Z,71.30
2022-12-12T06:49:20.876Z,70.71
2022-12-12T06:52:23.969Z,70.86
2022-12-12T06:55:28.823Z,70.42
2022-12-12T06:58:33.372Z,69.86
2022-12-12T07:01:36.157Z,69.80
2022-12-12T07:04:38.988Z,69.73
2022-12-12T07:07:41.719Z,69.93
2022-12-12T07:10:46.322Z,69.00
2022-12-12T07:13:48.978Z,69.06
2022-12-12T07:16:51.604Z,68.26
2022-12-12T07:19:54.378Z,68.63
2022-12-12T07:22:57.340Z,68.57
2022-12-12T07:26:04.436Z,68.56
2022-12-12T07:29:07.190Z,68.42
2022-12-12T07:32:10.094Z,67.96
2022-12-12T07:35:12.871Z,68.00
2022-12-12T07:38:15.915Z,67.99
2022-12-12T07:41:21.339Z,67.95
2022-12-12T07:44:23.991Z,67.58
2022-12-12T07:47:26.576Z,67.86
2022-12-12T07:50:29.578Z,67.29
2022-12-12T07:53:32.477Z,67.16
2022-12-12T07:56:36.724Z,66.95
2022-12-12T07:59:39.780Z,66.98
2022-12-12T08:02:42.911Z,66.11
2022-12-12T08:05:46.235Z,65.80
2022-12-12T08:08:50.954Z,65.23
2022-12-12T08:11:58.385Z,65.22
2022-12-12T08:15:02.561Z,65.11
2022-12-12T08:18:05.757Z,65.25
2022-12-12T08:21:11.631Z,65.35
2022-12-12T08:24:16.268Z,65.02
2022-12-12T08:27:20.256Z,64.00
2022-12-12T08:30:23.035Z,63.32
2022-12-12T08:33:25.611Z,63.26
2022-12-12T08:36:30.270Z,62.60
2022-12-12T08:39:33.379Z,62.26
2022-12-12T08:42:37.601Z,62.49
2022-12-12T08:45:40.853Z,62.82
2022-12-12T08:48:43.752Z,63.62
2022-12-12T08:51:46.745Z,63.38
2022-12-12T08:54:49.482Z,63.33
2022-12-12T08:57:53.673Z,63.66
2022-12-12T09:00:57.873Z,63.03
2022-12-12T09:04:00.662Z,63.09
2022-12-12T09:07:08.837Z,63.06
2022-12-12T09:10:11.713Z,62.94
2022-12-12T09:13:15.627Z,61.89
2022-12-12T09:16:19.389Z,61.75
2022-12-12T09:19:22.061Z,61.48
2022-12-12T09:22:24.854Z,60.98
2022-12-12T09:25:27.502Z,60.79
2022-12-12T09:28:31.417Z,61.33
2022-12-12T09:31:33.945Z,59.95
2022-12-12T09:34:38.080Z,59.54
2022-12-12T09:37:41.296Z,59.06
2022-12-12T09:40:55.236Z,58.08
2022-12-12T09:44:01.705Z,58.58
2022-12-12T09:47:07.222Z,57.90
2022-12-12T09:50:16.357Z,57.54
2022-12-12T09:53:21.532Z,57.33
2022-12-12T09:56:28.936Z,57.78
2022-12-12T09:59:38.795Z,57.43
2022-12-12T10:02:49.615Z,57.22
2022-12-12T10:06:20.585Z,55.99
2022-12-12T10:09:36.531Z,54.80
2022-12-12T10:12:39.522Z,54.39
2022-12-12T10:15:46.197Z,53.87
2022-12-12T10:18:51.545Z,54.13
2022-12-12T10:21:55.889Z,53.55
2022-12-12T10:25:03.974Z,52.78
2022-12-12T10:28:11.073Z,52.92
2022-12-12T10:31:23.893Z,53.08
2022-12-12T10:34:35.870Z,53.63
2022-12-12T10:37:45.474Z,53.55
2022-12-12T10:40:54.771Z,53.99
2022-12-12T10:44:05.424Z,54.61
2022-12-12T10:47:11.789Z,55.20
2022-12-12T10:50:23.093Z,55.77
2022-12-12T10:53:26.040Z,55.19
2022-12-12T10:56:30.029Z,55.40
2022-12-12T10:59:33.124Z,55.74
2022-12-12T11:02:42.479Z,56.54
2022-12-12T11:05:45.996Z,56.98
2022-12-12T11:08:56.679Z,57.12
2022-12-12T11:12:01.003Z,56.85
2022-12-12T11:15:08.806Z,56.58
2022-12-12T11:18:17.184Z,56.00
2022-12-12T11:21:21.755Z,56.35
2022-12-12T11:24:28.813Z,56.64
2022-12-12T11:27:34.548Z,56.82
2022-12-12T11:30:39.980Z,57.73
2022-12-12T11:33:48.741Z,57.59
2022-12-12T11:36:51.850Z,57.51
2022-12-12T11:39:55.806Z,57.40
2022-12-12T11:43:15.581Z,57.56
2022-12-12T11:46:19.935Z,57.41
2022-12-12T11:49:24.202Z,57.02
2022-12-12T11:52:29.971Z,56.76
2022-12-12T11:55:38.681Z,55.92
2022-12-12T11:58:47.213Z,56.43
2022-12-12T12:01:57.438Z,56.06
2022-12-12T12:05:08.140Z,56.11
2022-12-12T12:08:19.316Z,55.87
2022-12-12T12:11:28.717Z,56.02
2022-12-12T12:14:45.722Z,55.28
2022-12-12T12:18:00.807Z,55.45
2022-12-12T12:21:29.357Z,55.42
2022-12-12T12:24:50.912Z,54.83
2022-12-12T12:28:01.724Z,54.35
2022-12-12T12:31:11.025Z,54.08
2022-12-12T12:34:20.606Z,53.81
2022-12-12T12:37:34.144Z,53.68
2022-12-12T12:40:49.470Z,53.13
2022-12-12T12:44:03.080Z,53.52
2022-12-12T12:47:13.514Z,53.37
2022-12-12T12:50:19.305Z,53.24
2022-12-12T12:53:30.007Z,52.91
2022-12-12T12:56:38.535Z,47.63
2022-12-12T12:59:47.030Z,35.45
2022-12-12T13:02:55.251Z,31.39
2022-12-12T13:06:00.098Z,34.00
2022-12-12T13:09:31.911Z,39.09
2022-12-12T13:12:37.341Z,33.14
2022-12-12T13:15:42.820Z,32.24
2022-12-12T13:18:48.329Z,34.79
2022-12-12T13:21:56.576Z,34.54
2022-12-12T13:25:05.173Z,40.77
2022-12-12T13:28:13.613Z,45.83
2022-12-12T13:31:29.029Z,49.59
2022-12-12T13:34:32.355Z,52.24
2022-12-12T13:37:36.492Z,53.50
2022-12-12T13:40:44.764Z,54.65
2022-12-12T13:43:48.780Z,55.62
2022-12-12T13:46:51.483Z,56.32
2022-12-12T13:49:55.277Z,56.34
2022-12-12T13:53:20.766Z,56.29
2022-12-12T13:56:35.125Z,56.99
2022-12-12T13:59:52.733Z,57.54
2022-12-12T14:03:02.029Z,58.44
2022-12-12T14:06:11.221Z,59.01
2022-12-12T14:09:21.365Z,59.43
2022-12-12T14:12:31.420Z,59.96
2022-12-12T14:15:41.182Z,60.53
2022-12-12T14:18:59.824Z,61.01
2022-12-12T14:22:02.405Z,61.46
2022-12-12T14:25:09.167Z,61.94
2022-12-12T14:28:19.749Z,61.88
2022-12-12T14:31:23.547Z,62.55
2022-12-12T14:34:28.503Z,63.08
2022-12-12T14:37:40.379Z,63.60
2022-12-12T14:40:46.323Z,63.64
2022-12-12T14:44:38.017Z,63.56
2022-12-12T14:47:18.509Z,63.31
2022-12-12T14:50:21.050Z,63.26
2022-12-12T14:53:25.487Z,62.89
2022-12-12T14:56:29.594Z,62.97
2022-12-12T14:59:35.510Z,62.60
2022-12-12T15:02:40.072Z,62.64
2022-12-12T15:05:42.883Z,62.56
2022-12-12T15:08:45.724Z,62.85
2022-12-12T15:11:49.294Z,63.33
2022-12-12T15:14:58.194Z,64.45
2022-12-12T15:18:02.211Z,64.95
2022-12-12T15:21:05.698Z,65.32
2022-12-12T15:24:17.456Z,65.66
2022-12-12T15:27:25.216Z,66.35
2022-12-12T15:30:33.932Z,66.66
2022-12-12T15:33:39.286Z,66.86
2022-12-12T15:36:41.974Z,67.93
2022-12-12T15:39:44.813Z,68.01
2022-12-12T15:42:50.212Z,68.31
2022-12-12T15:45:56.036Z,68.58
2022-12-12T15:48:58.870Z,69.15
2022-12-12T15:52:10.166Z,69.20
2022-12-12T15:55:20.552Z,69.65
2022-12-12T15:58:29.466Z,69.72
2022-12-12T16:01:33.833Z,70.40
2022-12-12T16:04:36.995Z,70.63
2022-12-12T16:07:40.741Z,70.69
2022-12-12T16:10:52.245Z,70.58
2022-12-12T16:13:55.205Z,70.64
2022-12-12T16:17:02.899Z,71.16
2022-12-12T16:20:07.493Z,71.07
2022-12-12T16:23:17.515Z,71.44
2022-12-12T16:26:20.402Z,71.41
2022-12-12T16:29:23.237Z,71.07
2022-12-12T16:32:27.791Z,71.19
2022-12-12T16:35:30.683Z,71.12
2022-12-12T16:38:33.661Z,71.30
2022-12-12T16:41:36.787Z,71.70
2022-12-12T16:44:39.466Z,71.54
2022-12-12T16:47:43.537Z,71.24
2022-12-12T16:50:46.858Z,70.76
2022-12-12T16:53:49.451Z,70.51
2022-12-12T16:56:54.025Z,71.00
2022-12-12T16:59:56.826Z,71.03
2022-12-12T17:03:00.871Z,71.11
2022-12-12T17:06:04.122Z,71.23
2022-12-12T17:09:06.725Z,71.04
2022-12-12T17:12:11.623Z,71.28
2022-12-12T17:15:17.397Z,71.39
2022-12-12T17:18:21.801Z,72.19
2022-12-12T17:21:24.380Z,71.33
2022-12-12T17:24:27.319Z,71.76
2022-12-12T17:27:30.108Z,71.78
2022-12-12T17:30:32.878Z,71.68
2022-12-12T17:33:49.615Z,71.61
2022-12-12T17:36:53.221Z,71.91
2022-12-12T17:39:55.835Z,71.68
2022-12-12T17:42:58.967Z,71.48
2022-12-12T17:46:04.421Z,72.51
2022-12-12T17:49:08.710Z,71.79
2022-12-12T17:52:11.319Z,71.65
2022-12-12T17:55:54.735Z,71.98
2022-12-12T17:58:36.673Z,72.08
2022-12-12T18:01:39.253Z,72.19
2022-12-12T18:04:43.520Z,71.63
2022-12-12T18:07:46.593Z,71.84
2022-12-12T18:10:49.463Z,71.59
2022-12-12T18:13:52.969Z,71.65
2022-12-12T18:16:55.911Z,70.99
2022-12-12T18:20:00.039Z,72.00
2022-12-12T18:23:02.977Z,71.68
2022-12-12T18:26:06.680Z,71.38
2022-12-12T18:29:09.980Z,71.46
2022-12-12T18:32:12.821Z,71.62
2022-12-12T18:35:16.992Z,71.25
2022-12-12T18:38:20.371Z,71.33
2022-12-12T18:41:23.239Z,70.99
2022-12-12T18:44:26.067Z,71.33
2022-12-12T18:47:28.861Z,71.72
2022-12-12T18:50:33.983Z,71.26
2022-12-12T18:53:37.795Z,71.72
2022-12-12T18:56:40.664Z,71.53
2022-12-12T18:59:43.305Z,71.70
2022-12-12T19:02:46.066Z,71.99
2022-12-12T19:05:50.220Z,71.27
2022-12-12T19:08:54.328Z,71.16
2022-12-12T19:12:02.507Z,71.98
2022-12-12T19:15:21.724Z,71.77
2022-12-12T19:18:24.842Z,71.49
2022-12-12T19:21:28.996Z,71.93
2022-12-12T19:24:31.655Z,71.98
2022-12-12T19:27:34.351Z,71.37
2022-12-12T19:30:40.835Z,70.90
2022-12-12T19:33:43.590Z,70.86
2022-12-12T19:36:47.636Z,70.49
2022-12-12T19:39:52.265Z,70.46
2022-12-12T19:42:54.977Z,70.12
2022-12-12T19:46:04.121Z,71.44
2022-12-12T19:49:08.545Z,71.02
2022-12-12T19:52:14.487Z,70.64
2022-12-12T19:55:17.700Z,71.11
2022-12-12T19:58:20.609Z,71.34
2022-12-12T20:01:25.514Z,70.90
2022-12-12T20:04:30.251Z,71.04
2022-12-12T20:07:34.445Z,70.88
2022-12-12T20:10:38.884Z,71.04
2022-12-12T20:13:41.919Z,71.59
2022-12-12T20:16:45.415Z,71.59
2022-12-12T20:19:49.386Z,70.68
2022-12-12T20:22:53.605Z,71.26
2022-12-12T20:25:56.229Z,71.61
2022-12-12T20:29:00.617Z,72.28
2022-12-12T20:32:03.357Z,72.71
2022-12-12T20:35:06.802Z,72.09
2022-12-12T20:38:11.185Z,72.91
2022-12-12T20:41:18.179Z,72.63
2022-12-12T20:44:20.944Z,72.96
2022-12-12T20:47:24.380Z,73.70
2022-12-12T20:50:27.500Z,73.31
2022-12-12T20:53:36.252Z,73.74
2022-12-12T20:56:42.952Z,73.76
2022-12-12T20:59:49.379Z,73.92
2022-12-12T21:02:52.069Z,74.07
2022-12-12T21:05:55.104Z,74.63
2022-12-12T21:09:00.958Z,74.11
2022-12-12T21:12:03.701Z,74.26
2022-12-12T21:15:06.964Z,74.69
2022-12-12T21:18:09.933Z,74.20
2022-12-12T21:21:13.540Z,74.80
2022-12-12T21:24:19.416Z,74.53
2022-12-12T21:27:22.185Z,74.58
2022-12-12T21:30:25.025Z,75.06
2022-12-12T21:33:28.413Z,74.69
2022-12-12T21:36:31.381Z,75.24
2022-12-12T21:39:36.659Z,75.03
2022-12-12T21:42:39.526Z,75.21
2022-12-12T21:45:42.193Z,75.30
2022-12-12T21:48:44.942Z,75.24
2022-12-12T21:51:47.716Z,75.72
2022-12-12T21:54:51.785Z,76.21
2022-12-12T21:57:54.452Z,75.95
2022-12-12T22:00:57.265Z,75.75
2022-12-12T22:04:01.033Z,75.78
2022-12-12T22:07:03.854Z,75.70
2022-12-12T22:10:10.823Z,76.55
2022-12-12T22:13:14.720Z,76.03
2022-12-12T22:16:19.400Z,75.75
2022-12-12T22:19:22.050Z,76.46
2022-12-12T22:22:24.752Z,75.89
2022-12-12T22:25:29.108Z,75.83
2022-12-12T22:28:32.159Z,75.42
2022-12-12T22:31:37.462Z,75.69
2022-12-12T22:34:40.729Z,75.68
2022-12-12T22:37:43.402Z,75.33
2022-12-12T22:40:55.280Z,75.79
2022-12-12T22:43:59.838Z,76.16
2022-12-12T22:47:02.586Z,75.09
2022-12-12T22:50:05.798Z,75.48
2022-12-12T22:53:08.741Z,75.55
2022-12-12T22:56:13.469Z,75.71
2022-12-12T22:59:16.725Z,76.49
2022-12-12T23:02:24.770Z,76.39
2022-12-12T23:05:28.036Z,76.45
2022-12-12T23:08:31.039Z,76.92
2022-12-12T23:11:36.607Z,76.32
2022-12-12T23:14:39.404Z,77.65
2022-12-12T23:17:42.073Z,76.94
2022-12-12T23:20:47.011Z,76.86
2022-12-12T23:23:50.390Z,77.54
2022-12-12T23:26:54.479Z,77.04
2022-12-12T23:29:57.134Z,77.89
2022-12-12T23:32:59.955Z,77.59
2022-12-12T23:36:02.876Z,77.65
2022-12-12T23:39:08.707Z,77.14
2022-12-12T23:42:12.965Z,77.08
2022-12-12T23:45:16.662Z,77.69
2022-12-12T23:48:20.066Z,77.85
2022-12-12T23:51:23.410Z,77.94
2022-12-12T23:54:28.404Z,77.63
2022-12-12T23:57:32.491Z,77.76
